Branon, North Carolina
Current Conditions -  °F | °C
As of 9:54 AM on Monday 22 Dec 2014 (Local Time) from KINT Reporting Station
Haze Haze  
Wind Chill: 25°   Ceiling: 400
Heat Index: 34°   Visibility: 1.5mi
Dew Point: 32°   Wind: 14mph
Humidity: 92%   Direction: 50°NE
Pressure: 30.16"   Gusts: NA
Location:  36.1267°N, 80.6582°W
Report Text: KINT 221454Z 05012KT 1 1/2SM BR OVC004 01/00 A3016 RMK AO2 SLP216 60001 T00110000 58005
Loading
Personal Weather Stations






























Interactive Weather Map New forecast layout! Learn more

10-Day Weather Forecast

Advertisements
Track Severe Weather on mobile